createdAt,value
2022-11-09T00:00:24.148Z,-133.34
2022-11-09T00:01:24.109Z,-133.34
2022-11-09T00:02:24.103Z,-133.34
2022-11-09T00:03:24.090Z,-133.34
2022-11-09T00:04:24.087Z,-133.34
2022-11-09T00:05:24.101Z,-133.34
2022-11-09T00:06:24.040Z,-133.34
2022-11-09T00:07:24.031Z,-133.34
2022-11-09T00:08:24.017Z,-133.34
2022-11-09T00:09:24.241Z,-133.34
2022-11-09T00:10:23.992Z,-134.56
2022-11-09T00:11:23.960Z,-134.56
2022-11-09T00:12:23.952Z,-134.56
2022-11-09T00:13:26.943Z,-134.56
2022-11-09T00:14:26.995Z,-133.34
2022-11-09T00:15:23.952Z,-134.56
2022-11-09T00:16:23.904Z,-134.56
2022-11-09T00:17:23.887Z,-134.56
2022-11-09T00:18:23.906Z,-134.56
2022-11-09T00:19:23.852Z,-134.56
2022-11-09T00:20:23.856Z,-134.56
2022-11-09T00:21:23.940Z,-134.56
2022-11-09T00:22:23.834Z,-134.56
2022-11-09T00:23:23.865Z,-134.56
2022-11-09T00:24:23.815Z,-133.34
2022-11-09T00:25:23.787Z,-133.34
2022-11-09T00:26:23.756Z,-133.34
2022-11-09T00:27:23.757Z,-133.34
2022-11-09T00:28:23.818Z,-133.34
2022-11-09T00:29:23.761Z,-133.34
2022-11-09T00:30:23.733Z,-134.56
2022-11-09T00:31:23.697Z,-134.56
2022-11-09T00:32:27.635Z,-134.56
2022-11-09T00:33:26.681Z,-134.56
2022-11-09T00:34:26.671Z,-134.56
2022-11-09T00:35:23.638Z,-134.56
2022-11-09T00:36:23.618Z,-134.56
2022-11-09T00:37:23.750Z,-134.56
2022-11-09T00:38:23.619Z,-134.56
2022-11-09T00:39:23.561Z,-134.56
2022-11-09T00:40:23.596Z,-134.56
2022-11-09T00:41:23.542Z,-134.56
2022-11-09T00:42:23.540Z,-134.56
2022-11-09T00:43:23.703Z,-134.56
2022-11-09T00:44:23.525Z,-134.56
2022-11-09T00:45:23.483Z,-134.56
2022-11-09T00:46:23.518Z,-134.56
2022-11-09T00:47:23.467Z,-134.56
2022-11-09T00:48:23.472Z,-134.56
2022-11-09T00:49:23.464Z,-134.56
2022-11-09T00:50:23.442Z,-133.34
2022-11-09T00:51:23.422Z,-134.56
2022-11-09T00:52:23.427Z,-133.34
2022-11-09T00:53:26.367Z,-134.56
2022-11-09T00:54:26.427Z,-133.34
2022-11-09T00:55:23.327Z,-133.34
2022-11-09T00:56:23.351Z,-133.34
2022-11-09T00:57:23.309Z,-133.34
2022-11-09T00:58:23.299Z,-133.34
2022-11-09T00:59:23.301Z,-133.34
2022-11-09T01:00:23.303Z,-133.34
2022-11-09T01:01:23.299Z,-133.34
2022-11-09T01:02:23.309Z,-133.34
2022-11-09T01:03:23.230Z,-133.34
2022-11-09T01:04:23.217Z,-133.34
2022-11-09T01:05:23.200Z,-133.34
2022-11-09T01:06:23.210Z,-133.34
2022-11-09T01:07:23.205Z,-133.34
2022-11-09T01:08:23.213Z,-133.34
2022-11-09T01:09:23.153Z,-133.34
2022-11-09T01:10:23.141Z,-133.34
2022-11-09T01:11:23.123Z,-133.34
2022-11-09T01:12:23.101Z,-133.34
2022-11-09T01:13:26.123Z,-133.34
2022-11-09T01:14:26.081Z,-133.34
2022-11-09T01:15:23.112Z,-133.34
2022-11-09T01:16:23.032Z,-133.34
2022-11-09T01:17:23.024Z,-133.34
2022-11-09T01:18:23.028Z,-132.12
2022-11-09T01:19:23.003Z,-132.12
2022-11-09T01:20:22.984Z,-132.12
2022-11-09T01:21:22.995Z,-132.12
2022-11-09T01:22:22.967Z,-132.12
2022-11-09T01:23:22.950Z,-132.12
2022-11-09T01:24:22.937Z,-132.12
2022-11-09T01:25:22.946Z,-132.12
2022-11-09T01:26:22.907Z,-132.12
2022-11-09T01:27:22.897Z,-132.12
2022-11-09T01:28:22.867Z,-132.12
2022-11-09T01:29:22.838Z,-130.90
2022-11-09T01:30:22.859Z,-130.90
2022-11-09T01:31:22.878Z,-132.12
2022-11-09T01:32:22.808Z,-130.90
2022-11-09T01:33:25.806Z,-130.90
2022-11-09T01:34:25.790Z,-130.90
2022-11-09T01:35:22.769Z,-130.90
2022-11-09T01:36:22.828Z,-132.12
2022-11-09T01:37:22.729Z,-132.12
2022-11-09T01:38:22.731Z,-130.90
2022-11-09T01:39:22.709Z,-130.90
2022-11-09T01:40:22.719Z,-132.12
2022-11-09T01:41:22.719Z,-132.12
2022-11-09T01:42:22.721Z,-130.90
2022-11-09T01:43:22.914Z,-130.90
2022-11-09T01:44:22.650Z,-130.90
2022-11-09T01:45:22.624Z,-130.90
2022-11-09T01:46:22.612Z,-132.12
2022-11-09T01:47:22.593Z,-132.12
2022-11-09T01:48:22.641Z,-132.12
2022-11-09T01:49:22.575Z,-132.12
2022-11-09T01:50:22.554Z,-132.12
2022-11-09T01:51:22.569Z,-132.12
2022-11-09T01:52:22.703Z,-132.12
2022-11-09T01:53:25.766Z,-132.12
2022-11-09T01:54:25.705Z,-132.12
2022-11-09T01:55:22.527Z,-132.12
2022-11-09T01:56:22.685Z,-132.12
2022-11-09T01:57:22.603Z,-132.12
2022-11-09T01:58:22.476Z,-133.34
2022-11-09T01:59:22.835Z,-133.34
2022-11-09T02:00:22.658Z,-133.34
2022-11-09T02:01:22.638Z,-133.34
2022-11-09T02:02:22.533Z,-133.34
2022-11-09T02:03:22.698Z,-133.34
2022-11-09T02:04:22.509Z,-133.34
2022-11-09T02:05:22.459Z,-133.34
2022-11-09T02:06:22.619Z,-133.34
2022-11-09T02:07:22.425Z,-133.34
2022-11-09T02:08:22.516Z,-133.34
2022-11-09T02:09:22.408Z,-133.34
2022-11-09T02:10:22.489Z,-132.12
2022-11-09T02:11:22.259Z,-132.12
2022-11-09T02:12:22.291Z,-132.12
2022-11-09T02:13:25.343Z,-132.12
2022-11-09T02:14:25.361Z,-132.12
2022-11-09T02:15:22.211Z,-132.12
2022-11-09T02:16:22.415Z,-132.12
2022-11-09T02:17:22.293Z,-132.12
2022-11-09T02:18:22.200Z,-132.12
2022-11-09T02:19:22.209Z,-133.34
2022-11-09T02:20:22.162Z,-132.12
2022-11-09T02:21:22.192Z,-133.34
2022-11-09T02:22:22.234Z,-133.34
2022-11-09T02:23:22.464Z,-133.34
2022-11-09T02:24:22.311Z,-133.34
2022-11-09T02:25:22.243Z,-133.34
2022-11-09T02:26:22.134Z,-133.34
2022-11-09T02:27:22.227Z,-133.34
2022-11-09T02:28:22.244Z,-133.34
2022-11-09T02:29:22.195Z,-133.34
2022-11-09T02:30:22.153Z,-133.34
2022-11-09T02:31:21.977Z,-133.34
2022-11-09T02:32:21.953Z,-133.34
2022-11-09T02:33:24.975Z,-133.34
2022-11-09T02:34:24.935Z,-133.34
2022-11-09T02:35:21.955Z,-133.34
2022-11-09T02:36:21.889Z,-133.34
2022-11-09T02:37:21.871Z,-133.34
2022-11-09T02:38:21.872Z,-133.34
2022-11-09T02:39:21.847Z,-133.34
2022-11-09T02:40:21.856Z,-133.34
2022-11-09T02:41:21.838Z,-132.12
2022-11-09T02:42:22.003Z,-133.34
2022-11-09T02:43:22.161Z,-132.12
2022-11-09T02:44:21.779Z,-132.12
2022-11-09T02:45:21.751Z,-132.12
2022-11-09T02:46:21.750Z,-132.12
2022-11-09T02:47:21.789Z,-132.12
2022-11-09T02:48:21.728Z,-132.12
2022-11-09T02:49:21.703Z,-132.12
2022-11-09T02:50:21.695Z,-132.12
2022-11-09T02:51:21.671Z,-132.12
2022-11-09T02:52:21.656Z,-132.12
2022-11-09T02:53:24.703Z,-130.90
2022-11-09T02:54:24.642Z,-130.90
2022-11-09T02:55:21.611Z,-130.90
2022-11-09T02:56:21.603Z,-130.90
2022-11-09T02:57:21.597Z,-130.90
2022-11-09T02:58:21.592Z,-130.90
2022-11-09T02:59:21.613Z,-129.68
2022-11-09T03:00:21.545Z,-130.90
2022-11-09T03:01:21.583Z,-130.90
2022-11-09T03:02:21.523Z,-130.90
2022-11-09T03:03:21.754Z,-130.90
2022-11-09T03:04:21.500Z,-129.68
2022-11-09T03:05:21.524Z,-129.68
2022-11-09T03:06:21.475Z,-129.68
2022-11-09T03:07:21.447Z,-129.68
2022-11-09T03:08:21.446Z,-129.68
2022-11-09T03:09:21.425Z,-129.68
2022-11-09T03:10:21.405Z,-129.68
2022-11-09T03:11:21.489Z,-129.68
2022-11-09T03:12:21.386Z,-129.68
2022-11-09T03:13:24.357Z,-129.68
2022-11-09T03:14:24.375Z,-129.68
2022-11-09T03:15:21.339Z,-129.68
2022-11-09T03:16:21.328Z,-129.68
2022-11-09T03:17:21.399Z,-129.68
2022-11-09T03:18:21.298Z,-129.68
2022-11-09T03:19:21.289Z,-129.68
2022-11-09T03:20:21.281Z,-129.68
2022-11-09T03:21:21.264Z,-129.68
2022-11-09T03:22:21.249Z,-129.68
2022-11-09T03:23:21.556Z,-129.68
2022-11-09T03:24:21.221Z,-129.68
2022-11-09T03:25:21.220Z,-129.68
2022-11-09T03:26:21.199Z,-129.68
2022-11-09T03:27:21.171Z,-129.68
2022-11-09T03:28:21.215Z,-130.90
2022-11-09T03:29:21.148Z,-129.68
2022-11-09T03:30:21.121Z,-129.68
2022-11-09T03:31:21.141Z,-129.68
2022-11-09T03:32:21.122Z,-130.90
2022-11-09T03:33:24.121Z,-130.90
2022-11-09T03:34:24.100Z,-129.68
2022-11-09T03:35:21.061Z,-129.68
2022-11-09T03:36:21.044Z,-130.90
2022-11-09T03:37:21.162Z,-130.90
2022-11-09T03:38:21.029Z,-130.90
2022-11-09T03:39:21.023Z,-130.90
2022-11-09T03:40:20.995Z,-130.90
2022-11-09T03:41:20.986Z,-130.90
2022-11-09T03:42:20.977Z,-130.90
2022-11-09T03:43:21.336Z,-130.90
2022-11-09T03:44:20.937Z,-130.90
2022-11-09T03:45:20.934Z,-130.90
2022-11-09T03:46:20.918Z,-130.90
2022-11-09T03:47:20.904Z,-130.90
2022-11-09T03:48:20.901Z,-130.90
2022-11-09T03:49:20.897Z,-132.12
2022-11-09T03:50:20.921Z,-132.12
2022-11-09T03:51:20.888Z,-132.12
2022-11-09T03:52:20.841Z,-132.12
2022-11-09T03:53:23.841Z,-132.12
2022-11-09T03:54:23.819Z,-132.12
2022-11-09T03:55:20.799Z,-132.12
2022-11-09T03:56:20.849Z,-132.12
2022-11-09T03:57:20.788Z,-132.12
2022-11-09T03:58:20.742Z,-132.12
2022-11-09T03:59:20.750Z,-132.12
2022-11-09T04:00:20.732Z,-132.12
2022-11-09T04:01:20.784Z,-132.12
2022-11-09T04:02:20.734Z,-132.12
2022-11-09T04:03:21.077Z,-132.12
2022-11-09T04:04:20.674Z,-132.12
2022-11-09T04:05:20.657Z,-132.12
2022-11-09T04:06:20.695Z,-132.12
2022-11-09T04:07:20.691Z,-132.12
2022-11-09T04:08:20.612Z,-132.12
2022-11-09T04:09:20.613Z,-132.12
2022-11-09T04:10:20.590Z,-132.12
2022-11-09T04:11:20.583Z,-133.34
2022-11-09T04:12:20.625Z,-133.34
2022-11-09T04:13:23.571Z,-133.34
2022-11-09T04:14:23.545Z,-133.34
2022-11-09T04:15:20.526Z,-133.34
2022-11-09T04:16:20.508Z,-133.34
2022-11-09T04:17:20.507Z,-133.34
2022-11-09T04:18:20.506Z,-133.34
2022-11-09T04:19:20.537Z,-133.34
2022-11-09T04:20:20.466Z,-133.34
2022-11-09T04:21:23.777Z,-133.34
2022-11-09T04:22:20.438Z,-133.34
2022-11-09T04:23:20.654Z,-133.34
2022-11-09T04:24:20.388Z,-133.34
2022-11-09T04:25:20.447Z,-133.34
2022-11-09T04:26:20.371Z,-133.34
2022-11-09T04:27:20.339Z,-133.34
2022-11-09T04:28:20.329Z,-133.34
2022-11-09T04:29:20.328Z,-132.12
2022-11-09T04:30:20.310Z,-132.12
2022-11-09T04:31:24.193Z,-132.12
2022-11-09T04:32:21.281Z,-132.12
2022-11-09T04:33:23.406Z,-132.12
2022-11-09T04:34:23.269Z,-132.12
2022-11-09T04:35:20.251Z,-132.12
2022-11-09T04:36:20.222Z,-132.12
2022-11-09T04:37:20.251Z,-132.12
2022-11-09T04:38:20.200Z,-132.12
2022-11-09T04:39:20.195Z,-132.12
2022-11-09T04:40:20.143Z,-132.12
2022-11-09T04:41:20.150Z,-133.34
2022-11-09T04:42:20.140Z,-133.34
2022-11-09T04:43:20.460Z,-132.12
2022-11-09T04:44:20.095Z,-133.34
2022-11-09T04:45:20.089Z,-133.34
2022-11-09T04:46:20.077Z,-133.34
2022-11-09T04:47:20.068Z,-133.34
2022-11-09T04:48:20.037Z,-133.34
2022-11-09T04:49:20.056Z,-133.34
2022-11-09T04:50:20.008Z,-133.34
2022-11-09T04:51:20.063Z,-133.34
2022-11-09T04:52:19.999Z,-133.34
2022-11-09T04:53:23.222Z,-134.56
2022-11-09T04:54:22.976Z,-133.34
2022-11-09T04:55:19.954Z,-134.56
2022-11-09T04:56:19.938Z,-134.56
2022-11-09T04:57:19.957Z,-134.56
2022-11-09T04:58:24.653Z,-133.34
2022-11-09T04:59:20.961Z,-134.56
2022-11-09T05:00:19.867Z,-134.56
2022-11-09T05:01:19.861Z,-134.56
2022-11-09T05:02:19.842Z,-134.56
2022-11-09T05:03:20.305Z,-134.56
2022-11-09T05:04:19.865Z,-134.56
2022-11-09T05:05:19.859Z,-134.56
2022-11-09T05:06:19.788Z,-134.56
2022-11-09T05:07:19.772Z,-134.56
2022-11-09T05:08:19.753Z,-134.56
2022-11-09T05:09:19.746Z,-134.56
2022-11-09T05:10:19.741Z,-134.56
2022-11-09T05:11:19.743Z,-134.56
2022-11-09T05:12:19.694Z,-134.56
2022-11-09T05:13:22.877Z,-134.56
2022-11-09T05:14:22.686Z,-134.56
2022-11-09T05:15:19.662Z,-134.56
2022-11-09T05:16:19.665Z,-134.56
2022-11-09T05:17:19.645Z,-134.56
2022-11-09T05:18:19.615Z,-133.34
2022-11-09T05:19:19.607Z,-133.34
2022-11-09T05:20:19.575Z,-133.34
2022-11-09T05:21:19.566Z,-133.34
2022-11-09T05:22:19.606Z,-132.12
2022-11-09T05:23:19.869Z,-132.12
2022-11-09T05:24:19.523Z,-132.12
2022-11-09T05:25:19.517Z,-132.12
2022-11-09T05:26:19.564Z,-132.12
2022-11-09T05:27:19.478Z,-132.12
2022-11-09T05:28:19.498Z,-132.12
2022-11-09T05:29:19.461Z,-130.90
2022-11-09T05:30:19.428Z,-132.12
2022-11-09T05:31:19.478Z,-132.12
2022-11-09T05:32:19.412Z,-132.12
2022-11-09T05:33:22.665Z,-132.12
2022-11-09T05:34:22.390Z,-132.12
2022-11-09T05:35:19.373Z,-132.12
2022-11-09T05:36:19.352Z,-132.12
2022-11-09T05:37:19.360Z,-132.12
2022-11-09T05:38:19.318Z,-132.12
2022-11-09T05:39:19.311Z,-133.34
2022-11-09T05:40:19.291Z,-133.34
2022-11-09T05:41:19.284Z,-133.34
2022-11-09T05:42:19.324Z,-133.34
2022-11-09T05:43:19.632Z,-133.34
2022-11-09T05:44:19.234Z,-133.34
2022-11-09T05:45:41.326Z,-133.34
2022-11-09T05:46:20.202Z,-133.34
2022-11-09T05:47:19.191Z,-133.34
2022-11-09T05:48:19.234Z,-133.34
2022-11-09T05:49:19.183Z,-133.34
2022-11-09T05:50:19.146Z,-133.34
2022-11-09T05:51:19.147Z,-133.34
2022-11-09T05:52:19.125Z,-133.34
2022-11-09T05:53:22.804Z,-133.34
2022-11-09T05:54:22.278Z,-133.34
2022-11-09T05:55:19.105Z,-133.34
2022-11-09T05:56:19.186Z,-133.34
2022-11-09T05:57:19.209Z,-133.34
2022-11-09T05:58:19.162Z,-133.34
2022-11-09T05:59:19.098Z,-133.34
2022-11-09T06:00:19.058Z,-133.34
2022-11-09T06:01:19.146Z,-133.34
2022-11-09T06:02:19.113Z,-133.34
2022-11-09T06:03:19.365Z,-133.34
2022-11-09T06:04:19.111Z,-133.34
2022-11-09T06:05:19.359Z,-133.34
2022-11-09T06:06:19.291Z,-133.34
2022-11-09T06:07:19.017Z,-133.34
2022-11-09T06:08:19.341Z,-133.34
2022-11-09T06:09:19.366Z,-134.56
2022-11-09T06:10:18.921Z,-134.56
2022-11-09T06:11:23.838Z,-134.56
2022-11-09T06:12:19.941Z,-134.56
2022-11-09T06:13:22.234Z,-134.56
2022-11-09T06:14:21.933Z,-134.56
2022-11-09T06:15:18.843Z,-134.56
2022-11-09T06:16:18.922Z,-134.56
2022-11-09T06:17:18.894Z,-134.56
2022-11-09T06:18:18.870Z,-134.56
2022-11-09T06:19:19.112Z,-134.56
2022-11-09T06:20:18.854Z,-134.56
2022-11-09T06:21:18.786Z,-135.77
2022-11-09T06:22:18.756Z,-135.77
2022-11-09T06:23:19.129Z,-135.77
2022-11-09T06:24:18.764Z,-135.77
2022-11-09T06:25:18.705Z,-135.77
2022-11-09T06:26:18.698Z,-135.77
2022-11-09T06:27:18.698Z,-135.77
2022-11-09T06:28:18.775Z,-135.77
2022-11-09T06:29:18.708Z,-135.77
2022-11-09T06:30:18.643Z,-135.77
2022-11-09T06:31:18.675Z,-134.56
2022-11-09T06:32:18.620Z,-135.77
2022-11-09T06:33:21.932Z,-135.77
2022-11-09T06:34:21.834Z,-135.77
2022-11-09T06:35:19.379Z,-135.77
2022-11-09T06:36:18.538Z,-135.77
2022-11-09T06:37:18.619Z,-134.56
2022-11-09T06:38:24.989Z,-134.56
2022-11-09T06:39:18.761Z,-134.56
2022-11-09T06:40:18.559Z,-134.56
2022-11-09T06:41:18.442Z,-134.56
2022-11-09T06:42:18.610Z,-134.56
2022-11-09T06:43:20.859Z,-134.56
2022-11-09T06:44:18.639Z,-134.56
2022-11-09T06:45:18.622Z,-134.56
2022-11-09T06:46:18.807Z,-134.56
2022-11-09T06:47:18.605Z,-134.56
2022-11-09T06:48:18.350Z,-134.56
2022-11-09T06:49:18.445Z,-134.56
2022-11-09T06:50:18.618Z,-134.56
2022-11-09T06:51:18.511Z,-134.56
2022-11-09T06:52:18.475Z,-134.56
2022-11-09T06:53:21.773Z,-134.56
2022-11-09T06:54:21.358Z,-134.56
2022-11-09T06:55:18.338Z,-134.56
2022-11-09T06:56:18.255Z,-134.56
2022-11-09T06:57:18.190Z,-134.56
2022-11-09T06:58:18.208Z,-134.56
2022-11-09T06:59:18.186Z,-134.56
2022-11-09T07:00:18.130Z,-134.56
2022-11-09T07:01:18.143Z,-134.56
2022-11-09T07:02:18.139Z,-133.34
2022-11-09T07:03:18.419Z,-134.56
2022-11-09T07:04:18.090Z,-134.56
2022-11-09T07:05:18.111Z,-134.56
2022-11-09T07:06:18.072Z,-134.56
2022-11-09T07:07:18.267Z,-134.56
2022-11-09T07:08:18.043Z,-134.56
2022-11-09T07:09:18.040Z,-134.56
2022-11-09T07:10:18.033Z,-134.56
2022-11-09T07:11:18.308Z,-134.56
2022-11-09T07:12:17.982Z,-134.56
2022-11-09T07:13:21.597Z,-134.56
2022-11-09T07:14:20.982Z,-134.56
2022-11-09T07:15:18.011Z,-134.56
2022-11-09T07:16:18.052Z,-134.56
2022-11-09T07:17:17.975Z,-134.56
2022-11-09T07:18:17.965Z,-134.56
2022-11-09T07:19:17.955Z,-134.56
2022-11-09T07:20:17.942Z,-134.56
2022-11-09T07:21:17.872Z,-134.56
2022-11-09T07:22:17.870Z,-134.56
2022-11-09T07:23:18.129Z,-134.56
2022-11-09T07:24:17.878Z,-134.56
2022-11-09T07:25:17.894Z,-135.77
2022-11-09T07:26:17.810Z,-135.77
2022-11-09T07:27:17.797Z,-135.77
2022-11-09T07:28:17.766Z,-134.56
2022-11-09T07:29:17.742Z,-135.77
2022-11-09T07:30:17.709Z,-134.56
2022-11-09T07:31:17.748Z,-134.56
2022-11-09T07:32:17.688Z,-134.56
2022-11-09T07:33:20.720Z,-134.56
2022-11-09T07:34:20.678Z,-134.56
2022-11-09T07:35:25.160Z,-134.56
2022-11-09T07:36:21.409Z,-134.56
2022-11-09T07:37:17.653Z,-135.77
2022-11-09T07:38:17.575Z,-135.77
2022-11-09T07:39:17.564Z,-135.77
2022-11-09T07:40:17.550Z,-135.77
2022-11-09T07:41:17.534Z,-135.77
2022-11-09T07:42:17.515Z,-135.77
2022-11-09T07:43:17.723Z,-135.77
2022-11-09T07:44:17.492Z,-135.77
2022-11-09T07:45:17.475Z,-135.77
2022-11-09T07:46:17.463Z,-135.77
2022-11-09T07:47:18.473Z,-134.56
2022-11-09T07:48:17.435Z,-134.56
2022-11-09T07:49:17.451Z,-134.56
2022-11-09T07:50:17.404Z,-134.56
2022-11-09T07:51:17.457Z,-134.56
2022-11-09T07:52:17.378Z,-134.56
2022-11-09T07:53:20.614Z,-134.56
2022-11-09T07:54:20.362Z,-134.56
2022-11-09T07:55:17.329Z,-134.56
2022-11-09T07:56:17.320Z,-134.56
2022-11-09T07:57:17.332Z,-134.56
2022-11-09T07:58:17.289Z,-134.56
2022-11-09T07:59:17.306Z,-134.56
2022-11-09T08:00:22.494Z,-134.56
2022-11-09T08:01:18.270Z,-134.56
2022-11-09T08:02:17.250Z,-134.56
2022-11-09T08:03:17.499Z,-134.56
2022-11-09T08:04:17.204Z,-134.56
2022-11-09T08:05:17.220Z,-134.56
2022-11-09T08:06:18.641Z,-134.56
2022-11-09T08:07:17.196Z,-134.56
2022-11-09T08:08:17.144Z,-134.56
2022-11-09T08:09:17.158Z,-134.56
2022-11-09T08:10:17.121Z,-134.56
2022-11-09T08:11:17.134Z,-134.56
2022-11-09T08:12:17.094Z,-134.56
2022-11-09T08:13:20.497Z,-134.56
2022-11-09T08:14:20.072Z,-134.56
2022-11-09T08:15:17.056Z,-134.56
2022-11-09T08:16:17.032Z,-134.56
2022-11-09T08:17:17.083Z,-134.56
2022-11-09T08:18:17.068Z,-135.77
2022-11-09T08:19:16.985Z,-135.77
2022-11-09T08:20:16.977Z,-135.77
2022-11-09T08:21:16.963Z,-135.77
2022-11-09T08:22:16.954Z,-135.77
2022-11-09T08:23:16.954Z,-135.77
2022-11-09T08:24:16.925Z,-135.77
2022-11-09T08:25:16.907Z,-135.77
2022-11-09T08:26:17.038Z,-135.77
2022-11-09T08:27:16.906Z,-136.99
2022-11-09T08:28:17.196Z,-136.99
2022-11-09T08:29:16.846Z,-136.99
2022-11-09T08:30:16.843Z,-136.99
2022-11-09T08:31:16.820Z,-138.21
2022-11-09T08:32:16.816Z,-138.21
2022-11-09T08:33:19.818Z,-138.21
2022-11-09T08:34:19.799Z,-138.21
2022-11-09T08:35:16.766Z,-138.21
2022-11-09T08:36:16.758Z,-138.21
2022-11-09T08:37:16.740Z,-138.21
2022-11-09T08:38:16.841Z,-138.21
2022-11-09T08:39:16.727Z,-138.21
2022-11-09T08:40:16.699Z,-138.21
2022-11-09T08:41:16.682Z,-139.43
2022-11-09T08:42:16.672Z,-139.43
2022-11-09T08:43:16.683Z,-139.43
2022-11-09T08:44:16.641Z,-139.43
2022-11-09T08:45:16.632Z,-139.43
2022-11-09T08:46:16.613Z,-139.43
2022-11-09T08:47:16.600Z,-139.43
2022-11-09T08:48:16.620Z,-140.65
2022-11-09T08:49:16.572Z,-140.65
2022-11-09T08:50:16.583Z,-140.65
2022-11-09T08:51:16.544Z,-140.65
2022-11-09T08:52:16.537Z,-140.65
2022-11-09T08:53:19.516Z,-140.65
2022-11-09T08:54:19.527Z,-140.65
2022-11-09T08:55:16.524Z,-140.65
2022-11-09T08:56:16.477Z,-140.65
2022-11-09T08:57:16.468Z,-141.87
2022-11-09T08:58:16.520Z,-141.87
2022-11-09T08:59:16.443Z,-141.87
2022-11-09T09:00:16.424Z,-141.87
2022-11-09T09:01:17.447Z,-141.87
2022-11-09T09:02:16.468Z,-141.87
2022-11-09T09:03:16.379Z,-141.87
2022-11-09T09:04:16.367Z,-141.87
2022-11-09T09:05:16.359Z,-141.87
2022-11-09T09:06:16.339Z,-141.87
2022-11-09T09:07:16.408Z,-141.87
2022-11-09T09:08:16.317Z,-141.87
2022-11-09T09:09:16.302Z,-143.08
2022-11-09T09:10:16.291Z,-143.08
2022-11-09T09:11:16.367Z,-143.08
2022-11-09T09:12:16.260Z,-143.08
2022-11-09T09:13:19.241Z,-143.08
2022-11-09T09:14:19.242Z,-143.08
2022-11-09T09:15:16.222Z,-143.08
2022-11-09T09:16:16.230Z,-143.08
2022-11-09T09:17:16.192Z,-143.08
2022-11-09T09:18:16.232Z,-143.08
2022-11-09T09:19:16.161Z,-144.30
2022-11-09T09:20:16.155Z,-144.30
2022-11-09T09:21:16.134Z,-143.08
2022-11-09T09:22:16.124Z,-144.30
2022-11-09T09:23:16.103Z,-144.30
2022-11-09T09:24:16.125Z,-144.30
2022-11-09T09:25:16.087Z,-144.30
2022-11-09T09:26:16.066Z,-143.08
2022-11-09T09:27:16.046Z,-144.30
2022-11-09T09:28:16.038Z,-144.30
2022-11-09T09:29:16.025Z,-143.08
2022-11-09T09:30:16.039Z,-143.08
2022-11-09T09:31:18.575Z,-143.08
2022-11-09T09:32:15.987Z,-144.30
2022-11-09T09:33:18.968Z,-144.30
2022-11-09T09:34:18.999Z,-144.30
2022-11-09T09:35:15.977Z,-144.30
2022-11-09T09:36:15.931Z,-145.52
2022-11-09T09:37:15.909Z,-145.52
2022-11-09T09:38:15.898Z,-145.52
2022-11-09T09:39:15.936Z,-145.52
2022-11-09T09:40:15.900Z,-145.52
2022-11-09T09:41:15.860Z,-145.52
2022-11-09T09:42:15.850Z,-146.74
2022-11-09T09:43:15.836Z,-146.74
2022-11-09T09:44:15.873Z,-146.74
2022-11-09T09:45:15.803Z,-146.74
2022-11-09T09:46:15.792Z,-146.74
2022-11-09T09:47:15.773Z,-147.96
2022-11-09T09:48:15.762Z,-147.96
2022-11-09T09:49:15.746Z,-147.96
2022-11-09T09:50:15.816Z,-146.74
2022-11-09T09:51:15.722Z,-146.74
2022-11-09T09:52:15.703Z,-147.96
2022-11-09T09:53:24.391Z,-147.96
2022-11-09T09:54:19.710Z,-146.74
2022-11-09T09:55:15.664Z,-146.74
2022-11-09T09:56:15.674Z,-146.74
2022-11-09T09:57:15.642Z,-146.74
2022-11-09T09:58:15.614Z,-146.74
2022-11-09T09:59:15.616Z,-146.74
2022-11-09T10:00:15.596Z,-146.74
2022-11-09T10:01:15.596Z,-145.52
2022-11-09T10:02:15.586Z,-145.52
2022-11-09T10:03:15.562Z,-145.52
2022-11-09T10:04:15.624Z,-145.52
2022-11-09T10:05:15.529Z,-145.52
2022-11-09T10:06:15.509Z,-145.52
2022-11-09T10:07:15.619Z,-146.74
2022-11-09T10:08:15.505Z,-146.74
2022-11-09T10:09:15.469Z,-146.74
2022-11-09T10:10:15.467Z,-146.74
2022-11-09T10:11:15.441Z,-146.74
2022-11-09T10:12:15.459Z,-146.74
2022-11-09T10:13:18.411Z,-146.74
2022-11-09T10:14:18.415Z,-146.74
2022-11-09T10:15:15.389Z,-145.52
2022-11-09T10:16:15.382Z,-146.74
2022-11-09T10:17:15.489Z,-146.74
2022-11-09T10:18:15.341Z,-146.74
2022-11-09T10:19:15.326Z,-145.52
2022-11-09T10:20:15.313Z,-145.52
2022-11-09T10:21:15.318Z,-145.52
2022-11-09T10:22:15.288Z,-145.52
2022-11-09T10:23:15.304Z,-145.52
2022-11-09T10:24:15.265Z,-145.52
2022-11-09T10:26:16.452Z,-145.52
2022-11-09T10:27:15.225Z,-145.52
2022-11-09T10:28:15.207Z,-145.52
2022-11-09T10:29:16.745Z,-145.52
2022-11-09T10:30:15.189Z,-145.52
2022-11-09T10:31:15.157Z,-145.52
2022-11-09T10:32:15.159Z,-145.52
2022-11-09T10:33:18.159Z,-145.52
2022-11-09T10:34:18.141Z,-145.52
2022-11-09T10:35:15.173Z,-145.52
2022-11-09T10:36:15.091Z,-145.52
2022-11-09T10:37:15.080Z,-145.52
2022-11-09T10:38:15.073Z,-146.74
2022-11-09T10:39:15.147Z,-146.74
2022-11-09T10:40:15.041Z,-146.74
2022-11-09T10:41:15.062Z,-146.74
2022-11-09T10:42:15.010Z,-146.74
2022-11-09T10:43:14.995Z,-147.96
2022-11-09T10:44:17.467Z,-147.96
2022-11-09T10:45:14.976Z,-147.96
2022-11-09T10:46:14.956Z,-147.96
2022-11-09T10:47:14.972Z,-147.96
2022-11-09T10:48:14.924Z,-147.96
2022-11-09T10:49:14.913Z,-147.96
2022-11-09T10:50:14.894Z,-147.96
2022-11-09T10:51:14.934Z,-147.96
2022-11-09T10:52:14.934Z,-147.96
2022-11-09T10:53:17.853Z,-147.96
2022-11-09T10:54:17.915Z,-149.17
2022-11-09T10:55:14.835Z,-149.17
2022-11-09T10:56:20.331Z,-149.17
2022-11-09T10:57:15.835Z,-150.39
2022-11-09T10:58:14.915Z,-150.39
2022-11-09T10:59:14.777Z,-150.39
2022-11-09T11:00:14.769Z,-150.39
2022-11-09T11:01:14.799Z,-150.39
2022-11-09T11:02:14.791Z,-150.39
2022-11-09T11:03:14.762Z,-151.61
2022-11-09T11:04:14.697Z,-150.39
2022-11-09T11:05:14.710Z,-150.39
2022-11-09T11:06:14.678Z,-150.39
2022-11-09T11:07:18.341Z,-150.39
2022-11-09T11:08:15.691Z,-150.39
2022-11-09T11:09:14.629Z,-150.39
2022-11-09T11:10:14.622Z,-151.61
2022-11-09T11:11:32.685Z,-151.61
2022-11-09T11:12:15.600Z,-151.61
2022-11-09T11:13:17.735Z,-151.61
2022-11-09T11:14:22.822Z,-150.39
2022-11-09T11:15:15.552Z,-150.39
2022-11-09T11:16:14.578Z,-150.39
2022-11-09T11:17:14.731Z,-150.39
2022-11-09T11:18:14.541Z,-150.39
2022-11-09T11:19:14.523Z,-150.39
2022-11-09T11:20:14.493Z,-150.39
2022-11-09T11:21:18.389Z,-150.39
2022-11-09T11:22:14.458Z,-150.39
2022-11-09T11:23:14.500Z,-149.17
2022-11-09T11:24:14.455Z,-149.17
2022-11-09T11:25:14.418Z,-149.17
2022-11-09T11:26:14.427Z,-147.96
2022-11-09T11:27:14.402Z,-147.96
2022-11-09T11:28:14.374Z,-147.96
2022-11-09T11:29:14.351Z,-146.74
2022-11-09T11:30:14.350Z,-146.74
2022-11-09T11:31:14.379Z,-146.74
2022-11-09T11:32:14.310Z,-146.74
2022-11-09T11:33:17.307Z,-145.52
2022-11-09T11:34:38.476Z,-145.52
2022-11-09T11:35:15.280Z,-145.52
2022-11-09T11:36:14.264Z,-145.52
2022-11-09T11:37:14.291Z,-146.74
2022-11-09T11:38:14.374Z,-145.52
2022-11-09T11:39:14.212Z,-145.52
2022-11-09T11:40:14.204Z,-145.52
2022-11-09T11:41:14.182Z,-145.52
2022-11-09T11:42:14.174Z,-145.52
2022-11-09T11:43:14.232Z,-145.52
2022-11-09T11:44:14.154Z,-146.74
2022-11-09T11:45:38.838Z,-146.74
2022-11-09T11:46:15.115Z,-146.74
2022-11-09T11:47:14.103Z,-146.74
2022-11-09T11:48:14.109Z,-146.74
2022-11-09T11:49:14.096Z,-146.74
2022-11-09T11:50:14.055Z,-146.74
2022-11-09T11:51:14.046Z,-146.74
2022-11-09T11:52:14.237Z,-146.74
2022-11-09T11:53:17.389Z,-146.74
2022-11-09T11:54:17.155Z,-146.74
2022-11-09T11:55:14.086Z,-146.74
2022-11-09T11:56:14.077Z,-146.74
2022-11-09T11:57:14.123Z,-147.96
2022-11-09T11:58:14.196Z,-147.96
2022-11-09T11:59:14.150Z,-147.96
2022-11-09T12:00:14.040Z,-147.96
2022-11-09T12:01:13.924Z,-147.96
2022-11-09T12:02:13.955Z,-149.17
2022-11-09T12:03:14.114Z,-149.17
2022-11-09T12:04:13.869Z,-149.17
2022-11-09T12:05:13.912Z,-149.17
2022-11-09T12:06:13.844Z,-149.17